sensor_id;sensor_type;location;lat;lon;timestamp;pressure;altitude;pressure_sealevel;temperature;humidity
45323;BME280;31382;50.200;8.674;2024-01-15T00:00:30;99223.59;;;0.36;67.19
45323;BME280;31382;50.200;8.674;2024-01-15T00:05:32;99215.53;;;0.28;67.65
45323;BME280;31382;50.200;8.674;2024-01-15T00:10:33;99215.81;;;0.34;67.45
45323;BME280;31382;50.200;8.674;2024-01-15T00:15:34;99210.22;;;0.37;67.50
45323;BME280;31382;50.200;8.674;2024-01-15T00:20:36;99199.38;;;0.41;67.07
45323;BME280;31382;50.200;8.674;2024-01-15T00:25:37;99198.25;;;0.33;67.35
45323;BME280;31382;50.200;8.674;2024-01-15T00:30:39;99196.03;;;0.29;67.05
45323;BME280;31382;50.200;8.674;2024-01-15T00:35:41;99203.72;;;0.32;67.19
45323;BME280;31382;50.200;8.674;2024-01-15T00:40:42;99185.47;;;0.19;67.50
45323;BME280;31382;50.200;8.674;2024-01-15T00:45:44;99180.88;;;0.11;67.71
45323;BME280;31382;50.200;8.674;2024-01-15T00:50:46;99171.84;;;0.14;67.78
45323;BME280;31382;50.200;8.674;2024-01-15T00:55:48;99172.56;;;0.16;67.80
45323;BME280;31382;50.200;8.674;2024-01-15T01:00:49;99172.25;;;0.19;67.70
45323;BME280;31382;50.200;8.674;2024-01-15T01:05:51;99172.81;;;0.13;68.04
45323;BME280;31382;50.200;8.674;2024-01-15T01:10:52;99169.88;;;0.26;67.89
45323;BME280;31382;50.200;8.674;2024-01-15T01:15:54;99164.91;;;0.32;68.42
45323;BME280;31382;50.200;8.674;2024-01-15T01:20:55;99166.53;;;0.43;67.70
45323;BME280;31382;50.200;8.674;2024-01-15T01:25:57;99153.19;;;0.35;68.32
45323;BME280;31382;50.200;8.674;2024-01-15T01:30:59;99157.91;;;0.41;68.19
45323;BME280;31382;50.200;8.674;2024-01-15T01:36:07;99146.25;;;0.34;68.24
45323;BME280;31382;50.200;8.674;2024-01-15T01:41:09;99161.44;;;0.32;68.44
45323;BME280;31382;50.200;8.674;2024-01-15T01:46:11;99150.13;;;0.49;68.28
45323;BME280;31382;50.200;8.674;2024-01-15T01:51:13;99150.53;;;0.45;68.29
45323;BME280;31382;50.200;8.674;2024-01-15T01:56:15;99150.69;;;0.33;68.27
45323;BME280;31382;50.200;8.674;2024-01-15T02:01:16;99140.28;;;0.42;68.09
45323;BME280;31382;50.200;8.674;2024-01-15T02:06:19;99131.34;;;0.43;68.29
45323;BME280;31382;50.200;8.674;2024-01-15T02:11:21;99130.09;;;0.47;68.11
45323;BME280;31382;50.200;8.674;2024-01-15T02:16:22;99126.06;;;0.52;67.57
45323;BME280;31382;50.200;8.674;2024-01-15T02:21:24;99123.66;;;0.59;67.75
45323;BME280;31382;50.200;8.674;2024-01-15T02:26:28;99117.09;;;0.63;67.61
45323;BME280;31382;50.200;8.674;2024-01-15T02:31:29;99118.53;;;0.67;67.83
45323;BME280;31382;50.200;8.674;2024-01-15T02:36:31;99130.59;;;0.79;67.90
45323;BME280;31382;50.200;8.674;2024-01-15T02:41:32;99128.91;;;0.78;67.96
45323;BME280;31382;50.200;8.674;2024-01-15T02:46:34;99115.66;;;0.88;67.30
45323;BME280;31382;50.200;8.674;2024-01-15T02:51:35;99131.69;;;0.77;67.57
45323;BME280;31382;50.200;8.674;2024-01-15T02:56:37;99130.47;;;0.71;68.05
45323;BME280;31382;50.200;8.674;2024-01-15T03:01:38;99134.53;;;0.66;68.13
45323;BME280;31382;50.200;8.674;2024-01-15T03:06:39;99124.78;;;0.56;69.05
45323;BME280;31382;50.200;8.674;2024-01-15T03:11:41;99127.00;;;0.61;68.98
45323;BME280;31382;50.200;8.674;2024-01-15T03:16:42;99122.94;;;0.67;68.79
45323;BME280;31382;50.200;8.674;2024-01-15T03:21:44;99124.22;;;0.63;68.59
45323;BME280;31382;50.200;8.674;2024-01-15T03:26:45;99122.25;;;0.65;68.54
45323;BME280;31382;50.200;8.674;2024-01-15T03:31:47;99122.56;;;0.62;68.60
45323;BME280;31382;50.200;8.674;2024-01-15T03:36:48;99116.41;;;0.61;69.04
45323;BME280;31382;50.200;8.674;2024-01-15T03:41:50;99111.00;;;0.63;68.66
45323;BME280;31382;50.200;8.674;2024-01-15T03:46:51;99127.56;;;0.65;68.76
45323;BME280;31382;50.200;8.674;2024-01-15T03:51:53;99117.81;;;0.65;68.70
45323;BME280;31382;50.200;8.674;2024-01-15T03:56:54;99102.66;;;0.67;69.12
45323;BME280;31382;50.200;8.674;2024-01-15T04:01:55;99100.56;;;0.61;69.16
45323;BME280;31382;50.200;8.674;2024-01-15T04:06:57;99107.22;;;0.65;68.95
45323;BME280;31382;50.200;8.674;2024-01-15T04:11:58;99105.44;;;0.66;69.76
45323;BME280;31382;50.200;8.674;2024-01-15T04:17:00;99103.75;;;0.65;68.98
45323;BME280;31382;50.200;8.674;2024-01-15T04:22:01;99096.38;;;0.68;69.63
45323;BME280;31382;50.200;8.674;2024-01-15T04:27:03;99092.91;;;0.68;69.73
45323;BME280;31382;50.200;8.674;2024-01-15T04:32:05;99089.94;;;0.71;69.15
45323;BME280;31382;50.200;8.674;2024-01-15T04:37:06;99087.31;;;0.71;70.00
45323;BME280;31382;50.200;8.674;2024-01-15T04:42:08;99098.59;;;0.63;70.07
45323;BME280;31382;50.200;8.674;2024-01-15T04:47:09;99088.16;;;0.71;69.05
45323;BME280;31382;50.200;8.674;2024-01-15T04:52:11;99083.56;;;0.73;68.95
45323;BME280;31382;50.200;8.674;2024-01-15T04:57:13;99079.69;;;0.68;69.97
45323;BME280;31382;50.200;8.674;2024-01-15T05:02:15;99073.25;;;0.70;69.69
45323;BME280;31382;50.200;8.674;2024-01-15T05:07:16;99069.25;;;0.66;69.79
45323;BME280;31382;50.200;8.674;2024-01-15T05:12:18;99062.41;;;0.73;69.81
45323;BME280;31382;50.200;8.674;2024-01-15T05:17:19;99072.41;;;0.79;69.46
45323;BME280;31382;50.200;8.674;2024-01-15T05:22:21;99073.19;;;0.90;69.36
45323;BME280;31382;50.200;8.674;2024-01-15T05:27:22;99057.72;;;0.95;69.21
45323;BME280;31382;50.200;8.674;2024-01-15T05:32:24;99048.38;;;0.91;69.74
45323;BME280;31382;50.200;8.674;2024-01-15T05:37:25;99049.53;;;0.88;69.31
45323;BME280;31382;50.200;8.674;2024-01-15T05:42:27;99066.91;;;0.91;69.72
45323;BME280;31382;50.200;8.674;2024-01-15T05:47:31;99067.84;;;0.99;69.60
45323;BME280;31382;50.200;8.674;2024-01-15T05:52:33;99063.25;;;1.02;68.93
45323;BME280;31382;50.200;8.674;2024-01-15T05:57:34;99063.19;;;1.11;69.30
45323;BME280;31382;50.200;8.674;2024-01-15T06:02:37;99061.53;;;1.10;68.92
45323;BME280;31382;50.200;8.674;2024-01-15T06:07:39;99068.09;;;1.06;69.66
45323;BME280;31382;50.200;8.674;2024-01-15T06:12:40;99071.72;;;1.05;68.87
45323;BME280;31382;50.200;8.674;2024-01-15T06:17:42;99064.06;;;1.02;69.39
45323;BME280;31382;50.200;8.674;2024-01-15T06:22:43;99067.94;;;1.08;69.74
45323;BME280;31382;50.200;8.674;2024-01-15T06:27:45;99060.47;;;1.03;69.70
45323;BME280;31382;50.200;8.674;2024-01-15T06:32:46;99060.19;;;0.96;69.71
45323;BME280;31382;50.200;8.674;2024-01-15T06:37:48;99075.09;;;0.97;69.38
45323;BME280;31382;50.200;8.674;2024-01-15T06:42:49;99067.16;;;0.97;69.86
45323;BME280;31382;50.200;8.674;2024-01-15T06:47:51;99062.25;;;1.03;70.11
45323;BME280;31382;50.200;8.674;2024-01-15T06:52:52;99066.31;;;1.07;69.67
45323;BME280;31382;50.200;8.674;2024-01-15T06:57:54;99049.16;;;1.11;69.75
45323;BME280;31382;50.200;8.674;2024-01-15T07:02:56;99034.38;;;1.08;69.78
45323;BME280;31382;50.200;8.674;2024-01-15T07:07:58;99044.59;;;1.03;70.15
45323;BME280;31382;50.200;8.674;2024-01-15T07:12:59;99048.84;;;1.14;69.55
45323;BME280;31382;50.200;8.674;2024-01-15T07:18:01;99063.28;;;1.19;70.15
45323;BME280;31382;50.200;8.674;2024-01-15T07:23:03;99052.84;;;1.18;69.79
45323;BME280;31382;50.200;8.674;2024-01-15T07:28:05;99052.16;;;1.16;70.48
45323;BME280;31382;50.200;8.674;2024-01-15T07:33:07;99046.59;;;1.19;70.05
45323;BME280;31382;50.200;8.674;2024-01-15T07:38:08;99061.66;;;1.18;70.01
45323;BME280;31382;50.200;8.674;2024-01-15T07:43:11;99068.03;;;1.16;70.13
45323;BME280;31382;50.200;8.674;2024-01-15T07:48:12;99064.28;;;1.18;70.93
45323;BME280;31382;50.200;8.674;2024-01-15T07:53:14;99047.75;;;1.34;70.35
45323;BME280;31382;50.200;8.674;2024-01-15T07:58:15;99052.06;;;1.35;70.12
45323;BME280;31382;50.200;8.674;2024-01-15T08:03:17;99045.78;;;1.36;70.51
45323;BME280;31382;50.200;8.674;2024-01-15T08:08:19;99057.44;;;1.44;70.63
45323;BME280;31382;50.200;8.674;2024-01-15T08:13:22;99046.22;;;1.50;70.11
45323;BME280;31382;50.200;8.674;2024-01-15T08:18:24;99051.72;;;1.48;70.19
45323;BME280;31382;50.200;8.674;2024-01-15T08:23:26;99042.91;;;1.48;70.01
45323;BME280;31382;50.200;8.674;2024-01-15T08:28:29;99049.19;;;1.47;70.33
45323;BME280;31382;50.200;8.674;2024-01-15T08:33:31;99030.66;;;1.47;70.83
45323;BME280;31382;50.200;8.674;2024-01-15T08:38:32;99031.28;;;1.58;70.73
45323;BME280;31382;50.200;8.674;2024-01-15T08:43:34;99035.28;;;1.63;69.99
45323;BME280;31382;50.200;8.674;2024-01-15T08:48:36;99037.94;;;1.63;70.72
45323;BME280;31382;50.200;8.674;2024-01-15T08:53:37;99034.38;;;1.72;70.48
45323;BME280;31382;50.200;8.674;2024-01-15T08:58:40;99036.56;;;1.76;70.76
45323;BME280;31382;50.200;8.674;2024-01-15T09:03:41;99029.97;;;1.81;70.82
45323;BME280;31382;50.200;8.674;2024-01-15T09:08:44;99018.72;;;1.78;70.25
45323;BME280;31382;50.200;8.674;2024-01-15T09:13:45;99021.03;;;1.82;70.72
45323;BME280;31382;50.200;8.674;2024-01-15T09:18:47;99013.75;;;2.02;69.95
45323;BME280;31382;50.200;8.674;2024-01-15T09:23:48;99014.66;;;2.36;69.56
45323;BME280;31382;50.200;8.674;2024-01-15T09:28:50;99012.16;;;2.61;69.47
45323;BME280;31382;50.200;8.674;2024-01-15T09:33:51;98997.16;;;2.86;69.33
45323;BME280;31382;50.200;8.674;2024-01-15T09:38:57;98997.22;;;3.03;69.04
45323;BME280;31382;50.200;8.674;2024-01-15T09:43:58;98992.13;;;3.26;68.75
45323;BME280;31382;50.200;8.674;2024-01-15T09:49:00;98987.81;;;3.33;68.33
45323;BME280;31382;50.200;8.674;2024-01-15T09:54:03;99002.63;;;3.44;68.70
45323;BME280;31382;50.200;8.674;2024-01-15T09:59:05;98981.72;;;3.41;68.18
45323;BME280;31382;50.200;8.674;2024-01-15T10:04:07;98972.25;;;3.38;67.81
45323;BME280;31382;50.200;8.674;2024-01-15T10:09:09;98974.53;;;3.25;67.84
45323;BME280;31382;50.200;8.674;2024-01-15T10:14:11;98960.59;;;3.14;67.97
45323;BME280;31382;50.200;8.674;2024-01-15T10:19:15;98958.09;;;3.13;67.65
45323;BME280;31382;50.200;8.674;2024-01-15T10:24:17;98955.78;;;3.18;67.43
45323;BME280;31382;50.200;8.674;2024-01-15T10:29:18;98953.31;;;3.25;67.19
45323;BME280;31382;50.200;8.674;2024-01-15T10:34:20;98944.84;;;3.29;66.75
45323;BME280;31382;50.200;8.674;2024-01-15T10:39:23;98933.22;;;3.47;66.40
45323;BME280;31382;50.200;8.674;2024-01-15T10:44:25;98930.25;;;3.66;65.95
45323;BME280;31382;50.200;8.674;2024-01-15T10:49:26;98919.78;;;3.65;65.72
45323;BME280;31382;50.200;8.674;2024-01-15T10:54:35;98917.13;;;3.56;65.89
45323;BME280;31382;50.200;8.674;2024-01-15T10:59:38;98904.16;;;3.86;65.80
45323;BME280;31382;50.200;8.674;2024-01-15T11:04:40;98892.34;;;3.89;65.65
45323;BME280;31382;50.200;8.674;2024-01-15T11:09:45;98891.00;;;3.93;65.41
45323;BME280;31382;50.200;8.674;2024-01-15T11:14:49;98895.38;;;3.69;65.58
45323;BME280;31382;50.200;8.674;2024-01-15T11:19:50;98899.84;;;3.61;65.38
45323;BME280;31382;50.200;8.674;2024-01-15T11:24:53;98898.88;;;3.62;65.65
45323;BME280;31382;50.200;8.674;2024-01-15T11:30:08;98887.09;;;3.56;65.34
45323;BME280;31382;50.200;8.674;2024-01-15T11:35:10;98884.75;;;3.61;66.01
45323;BME280;31382;50.200;8.674;2024-01-15T11:40:12;98891.03;;;3.76;65.50
45323;BME280;31382;50.200;8.674;2024-01-15T11:45:19;98901.31;;;3.96;65.03
45323;BME280;31382;50.200;8.674;2024-01-15T11:50:21;98895.25;;;4.18;64.96
45323;BME280;31382;50.200;8.674;2024-01-15T11:55:43;98891.94;;;4.25;64.72
45323;BME280;31382;50.200;8.674;2024-01-15T12:00:51;98908.88;;;4.24;64.26
45323;BME280;31382;50.200;8.674;2024-01-15T12:05:53;98913.38;;;4.23;64.27
45323;BME280;31382;50.200;8.674;2024-01-15T12:10:55;98902.75;;;4.07;64.84
45323;BME280;31382;50.200;8.674;2024-01-15T12:16:01;98904.09;;;4.03;65.34
45323;BME280;31382;50.200;8.674;2024-01-15T12:21:04;98901.97;;;3.98;65.87
45323;BME280;31382;50.200;8.674;2024-01-15T12:26:05;98901.31;;;3.96;65.60
45323;BME280;31382;50.200;8.674;2024-01-15T12:53:05;98901.38;;;4.27;65.17
45323;BME280;31382;50.200;8.674;2024-01-15T12:58:07;98907.38;;;4.29;65.47
45323;BME280;31382;50.200;8.674;2024-01-15T13:03:10;98919.00;;;4.28;65.87
45323;BME280;31382;50.200;8.674;2024-01-15T13:08:13;98895.84;;;4.45;65.54
45323;BME280;31382;50.200;8.674;2024-01-15T13:13:15;98902.16;;;4.44;65.03
45323;BME280;31382;50.200;8.674;2024-01-15T13:18:17;98899.72;;;4.34;65.07
45323;BME280;31382;50.200;8.674;2024-01-15T13:23:19;98890.34;;;4.47;64.74
45323;BME280;31382;50.200;8.674;2024-01-15T13:28:22;98908.81;;;4.40;64.98
45323;BME280;31382;50.200;8.674;2024-01-15T13:33:25;98914.31;;;4.39;64.43
45323;BME280;31382;50.200;8.674;2024-01-15T13:38:27;98901.78;;;4.55;64.29
45323;BME280;31382;50.200;8.674;2024-01-15T13:43:29;98905.09;;;4.57;64.49
45323;BME280;31382;50.200;8.674;2024-01-15T13:48:31;98915.59;;;4.51;63.92
45323;BME280;31382;50.200;8.674;2024-01-15T13:53:37;98919.56;;;4.55;63.72
45323;BME280;31382;50.200;8.674;2024-01-15T13:58:39;98922.03;;;4.65;63.25
45323;BME280;31382;50.200;8.674;2024-01-15T14:03:41;98932.53;;;4.58;63.42
45323;BME280;31382;50.200;8.674;2024-01-15T14:08:43;98935.25;;;4.42;62.91
45323;BME280;31382;50.200;8.674;2024-01-15T14:13:44;98944.53;;;4.46;62.29
45323;BME280;31382;50.200;8.674;2024-01-15T14:18:47;98948.06;;;4.38;62.45
45323;BME280;31382;50.200;8.674;2024-01-15T14:23:49;98959.91;;;4.27;62.31
45323;BME280;31382;50.200;8.674;2024-01-15T14:28:50;98957.25;;;4.27;62.31
45323;BME280;31382;50.200;8.674;2024-01-15T14:33:52;98958.41;;;4.16;62.13
45323;BME280;31382;50.200;8.674;2024-01-15T14:38:54;98974.38;;;4.08;61.51
45323;BME280;31382;50.200;8.674;2024-01-15T14:43:55;98979.72;;;4.08;61.03
45323;BME280;31382;50.200;8.674;2024-01-15T14:48:58;98981.69;;;4.14;61.28
45323;BME280;31382;50.200;8.674;2024-01-15T14:54:00;98981.69;;;4.23;61.29
45323;BME280;31382;50.200;8.674;2024-01-15T14:59:02;98985.03;;;4.25;61.05
45323;BME280;31382;50.200;8.674;2024-01-15T15:04:04;98993.00;;;4.25;60.63
45323;BME280;31382;50.200;8.674;2024-01-15T15:09:05;99007.44;;;4.30;60.29
45323;BME280;31382;50.200;8.674;2024-01-15T15:14:11;99014.94;;;4.27;60.21
45323;BME280;31382;50.200;8.674;2024-01-15T15:19:12;99023.59;;;4.21;59.86
45323;BME280;31382;50.200;8.674;2024-01-15T15:24:14;99017.59;;;4.27;59.89
45323;BME280;31382;50.200;8.674;2024-01-15T15:29:16;99034.69;;;4.32;60.12
45323;BME280;31382;50.200;8.674;2024-01-15T15:34:18;99042.69;;;4.24;60.25
45323;BME280;31382;50.200;8.674;2024-01-15T15:39:20;99052.34;;;4.09;60.96
45323;BME280;31382;50.200;8.674;2024-01-15T15:44:22;99063.81;;;4.01;60.73
45323;BME280;31382;50.200;8.674;2024-01-15T15:49:23;99072.94;;;3.90;61.23
45323;BME280;31382;50.200;8.674;2024-01-15T15:54:25;99083.72;;;3.89;61.38
45323;BME280;31382;50.200;8.674;2024-01-15T15:59:27;99091.03;;;3.78;61.98
45323;BME280;31382;50.200;8.674;2024-01-15T16:04:29;99102.31;;;3.81;61.80
45323;BME280;31382;50.200;8.674;2024-01-15T16:09:31;99097.19;;;3.87;62.30
45323;BME280;31382;50.200;8.674;2024-01-15T16:14:32;99104.81;;;3.82;62.04
45323;BME280;31382;50.200;8.674;2024-01-15T16:19:34;99098.69;;;3.73;62.53
45323;BME280;31382;50.200;8.674;2024-01-15T16:24:56;99125.03;;;3.67;62.43
45323;BME280;31382;50.200;8.674;2024-01-15T16:30:04;99111.59;;;3.68;62.59
45323;BME280;31382;50.200;8.674;2024-01-15T16:35:18;99125.19;;;3.65;62.41
45323;BME280;31382;50.200;8.674;2024-01-15T16:40:20;99144.94;;;3.54;62.58
45323;BME280;31382;50.200;8.674;2024-01-15T16:45:22;99156.69;;;3.44;62.42
45323;BME280;31382;50.200;8.674;2024-01-15T16:50:23;99158.88;;;3.48;62.06
45323;BME280;31382;50.200;8.674;2024-01-15T16:55:25;99165.66;;;3.43;62.08
45323;BME280;31382;50.200;8.674;2024-01-15T17:00:27;99182.59;;;3.42;62.03
45323;BME280;31382;50.200;8.674;2024-01-15T17:05:28;99185.25;;;3.42;62.64
45323;BME280;31382;50.200;8.674;2024-01-15T17:10:30;99210.97;;;3.41;62.55
45323;BME280;31382;50.200;8.674;2024-01-15T17:15:32;99203.34;;;3.46;62.14
45323;BME280;31382;50.200;8.674;2024-01-15T17:20:34;99203.34;;;3.46;62.56
45323;BME280;31382;50.200;8.674;2024-01-15T17:25:36;99216.69;;;3.54;62.46
45323;BME280;31382;50.200;8.674;2024-01-15T17:30:38;99220.94;;;3.47;62.59
45323;BME280;31382;50.200;8.674;2024-01-15T17:35:50;99223.59;;;3.47;62.33
45323;BME280;31382;50.200;8.674;2024-01-15T17:40:51;99236.31;;;3.35;62.58
45323;BME280;31382;50.200;8.674;2024-01-15T17:45:53;99239.97;;;3.34;62.48
45323;BME280;31382;50.200;8.674;2024-01-15T17:50:57;99243.84;;;3.40;62.30
45323;BME280;31382;50.200;8.674;2024-01-15T17:56:00;99258.06;;;3.31;62.72
45323;BME280;31382;50.200;8.674;2024-01-15T18:01:02;99254.66;;;3.21;63.14
45323;BME280;31382;50.200;8.674;2024-01-15T18:06:06;99264.09;;;3.15;63.71
45323;BME280;31382;50.200;8.674;2024-01-15T18:11:15;99270.91;;;3.17;63.05
45323;BME280;31382;50.200;8.674;2024-01-15T18:16:16;99281.69;;;3.16;63.30
45323;BME280;31382;50.200;8.674;2024-01-15T18:21:25;99293.28;;;3.15;63.27
45323;BME280;31382;50.200;8.674;2024-01-15T18:26:26;99294.25;;;3.14;63.06
45323;BME280;31382;50.200;8.674;2024-01-15T18:31:28;99314.91;;;3.20;63.06
45323;BME280;31382;50.200;8.674;2024-01-15T18:36:31;99335.31;;;3.20;63.23
45323;BME280;31382;50.200;8.674;2024-01-15T18:41:32;99335.16;;;3.21;62.83
45323;BME280;31382;50.200;8.674;2024-01-15T18:46:34;99340.63;;;3.20;62.95
45323;BME280;31382;50.200;8.674;2024-01-15T18:51:36;99351.72;;;3.15;63.13
45323;BME280;31382;50.200;8.674;2024-01-15T18:56:41;99354.91;;;3.18;62.95
45323;BME280;31382;50.200;8.674;2024-01-15T19:01:43;99349.72;;;3.17;62.87
45323;BME280;31382;50.200;8.674;2024-01-15T19:06:45;99356.25;;;3.23;62.62
45323;BME280;31382;50.200;8.674;2024-01-15T19:11:50;99359.50;;;3.34;62.45
45323;BME280;31382;50.200;8.674;2024-01-15T19:16:51;99373.75;;;3.33;62.53
45323;BME280;31382;50.200;8.674;2024-01-15T19:21:54;99363.66;;;3.37;62.96
45323;BME280;31382;50.200;8.674;2024-01-15T19:26:55;99380.91;;;3.33;63.60
45323;BME280;31382;50.200;8.674;2024-01-15T19:31:57;99371.63;;;3.37;63.62
45323;BME280;31382;50.200;8.674;2024-01-15T19:37:02;99379.59;;;3.37;63.52
45323;BME280;31382;50.200;8.674;2024-01-15T19:42:04;99374.38;;;3.27;63.74
45323;BME280;31382;50.200;8.674;2024-01-15T19:47:06;99390.16;;;3.11;64.10
45323;BME280;31382;50.200;8.674;2024-01-15T19:52:07;99386.00;;;3.08;64.28
45323;BME280;31382;50.200;8.674;2024-01-15T19:57:10;99384.19;;;3.09;63.85
45323;BME280;31382;50.200;8.674;2024-01-15T20:02:12;99398.34;;;3.17;63.50
45323;BME280;31382;50.200;8.674;2024-01-15T20:07:14;99391.47;;;3.25;63.34
45323;BME280;31382;50.200;8.674;2024-01-15T20:12:16;99389.25;;;3.38;63.16
45323;BME280;31382;50.200;8.674;2024-01-15T20:17:18;99391.28;;;3.44;63.00
45323;BME280;31382;50.200;8.674;2024-01-15T20:22:19;99402.06;;;3.43;63.14
45323;BME280;31382;50.200;8.674;2024-01-15T20:27:21;99408.25;;;3.51;62.96
45323;BME280;31382;50.200;8.674;2024-01-15T20:32:23;99400.16;;;3.53;63.22
45323;BME280;31382;50.200;8.674;2024-01-15T20:37:25;99388.84;;;3.51;62.88
45323;BME280;31382;50.200;8.674;2024-01-15T20:42:29;99390.28;;;3.45;63.19
45323;BME280;31382;50.200;8.674;2024-01-15T20:47:31;99418.00;;;3.43;62.79
45323;BME280;31382;50.200;8.674;2024-01-15T20:52:34;99410.72;;;3.45;62.80
45323;BME280;31382;50.200;8.674;2024-01-15T20:57:36;99406.69;;;3.41;62.60
45323;BME280;31382;50.200;8.674;2024-01-15T21:02:38;99431.00;;;3.46;62.61
45323;BME280;31382;50.200;8.674;2024-01-15T21:07:40;99443.41;;;3.45;62.38
45323;BME280;31382;50.200;8.674;2024-01-15T21:12:43;99455.66;;;3.56;62.03
45323;BME280;31382;50.200;8.674;2024-01-15T21:17:45;99450.63;;;3.53;62.03
45323;BME280;31382;50.200;8.674;2024-01-15T21:22:50;99465.28;;;3.57;61.72
45323;BME280;31382;50.200;8.674;2024-01-15T21:27:52;99470.50;;;3.67;61.65
45323;BME280;31382;50.200;8.674;2024-01-15T21:32:54;99473.03;;;3.68;61.75
45323;BME280;31382;50.200;8.674;2024-01-15T21:37:56;99480.03;;;3.69;61.61
45323;BME280;31382;50.200;8.674;2024-01-15T21:42:58;99485.16;;;3.71;61.25
45323;BME280;31382;50.200;8.674;2024-01-15T21:48:00;99499.72;;;3.85;61.09
45323;BME280;31382;50.200;8.674;2024-01-15T21:53:02;99495.16;;;3.77;61.18
45323;BME280;31382;50.200;8.674;2024-01-15T21:58:03;99497.31;;;3.73;61.29
45323;BME280;31382;50.200;8.674;2024-01-15T22:03:05;99502.63;;;3.73;61.34
45323;BME280;31382;50.200;8.674;2024-01-15T22:08:07;99512.28;;;3.74;61.31
45323;BME280;31382;50.200;8.674;2024-01-15T22:13:08;99508.09;;;3.72;60.85
45323;BME280;31382;50.200;8.674;2024-01-15T22:18:10;99522.59;;;3.77;60.94
45323;BME280;31382;50.200;8.674;2024-01-15T22:23:12;99534.69;;;3.72;61.39
45323;BME280;31382;50.200;8.674;2024-01-15T22:28:14;99545.59;;;3.69;61.13
45323;BME280;31382;50.200;8.674;2024-01-15T22:33:16;99561.69;;;3.67;60.80
45323;BME280;31382;50.200;8.674;2024-01-15T22:38:18;99562.00;;;3.64;61.04
45323;BME280;31382;50.200;8.674;2024-01-15T22:43:20;99569.38;;;3.52;61.43
45323;BME280;31382;50.200;8.674;2024-01-15T22:48:22;99575.06;;;3.57;61.24
45323;BME280;31382;50.200;8.674;2024-01-15T22:53:24;99575.34;;;3.54;61.11
45323;BME280;31382;50.200;8.674;2024-01-15T22:58:25;99561.59;;;3.41;61.26
45323;BME280;31382;50.200;8.674;2024-01-15T23:03:27;99579.31;;;3.23;61.65
45323;BME280;31382;50.200;8.674;2024-01-15T23:08:29;99591.22;;;3.18;61.65
45323;BME280;31382;50.200;8.674;2024-01-15T23:13:30;99591.66;;;3.14;61.89
45323;BME280;31382;50.200;8.674;2024-01-15T23:18:32;99593.94;;;3.09;62.22
45323;BME280;31382;50.200;8.674;2024-01-15T23:23:34;99601.75;;;3.10;61.92
45323;BME280;31382;50.200;8.674;2024-01-15T23:28:36;99604.53;;;3.09;61.95
45323;BME280;31382;50.200;8.674;2024-01-15T23:33:37;99609.84;;;3.09;62.38
45323;BME280;31382;50.200;8.674;2024-01-15T23:38:39;99618.06;;;3.15;62.19
45323;BME280;31382;50.200;8.674;2024-01-15T23:43:42;99620.47;;;3.09;62.04
45323;BME280;31382;50.200;8.674;2024-01-15T23:48:44;99626.25;;;3.04;62.13
45323;BME280;31382;50.200;8.674;2024-01-15T23:53:47;99636.31;;;3.01;62.48
45323;BME280;31382;50.200;8.674;2024-01-15T23:58:50;99633.94;;;2.97;62.58
